createdAt,value
2022-10-31T00:00:13.489Z,86.03
2022-10-31T00:05:17.659Z,97.03
2022-10-31T00:10:19.502Z,81.63
2022-10-31T00:15:21.631Z,73.43
2022-10-31T00:20:23.466Z,73.57
2022-10-31T00:25:25.528Z,77.70
2022-10-31T00:30:27.453Z,72.00
2022-10-31T00:35:29.308Z,71.35
2022-10-31T00:40:31.157Z,66.18
2022-10-31T00:45:33.171Z,60.72
2022-10-31T00:50:35.013Z,66.47
2022-10-31T00:55:36.982Z,63.40
2022-10-31T01:00:39.348Z,52.08
2022-10-31T01:05:41.312Z,56.42
2022-10-31T01:10:44.019Z,52.28
2022-10-31T01:15:46.294Z,62.97
2022-10-31T01:20:48.142Z,56.58
2022-10-31T01:25:50.108Z,56.38
2022-10-31T01:30:51.996Z,55.63
2022-10-31T01:35:54.434Z,49.97
2022-10-31T01:40:56.355Z,53.33
2022-10-31T01:45:58.333Z,50.13
2022-10-31T01:51:00.802Z,49.65
2022-10-31T01:56:02.711Z,49.78
2022-10-31T02:01:07.923Z,45.38
2022-10-31T02:06:26.354Z,47.00
2022-10-31T02:11:30.524Z,50.00
2022-10-31T02:16:32.678Z,43.72
2022-10-31T02:21:56.320Z,47.58
2022-10-31T02:27:10.450Z,42.63
2022-10-31T02:32:18.271Z,42.17
2022-10-31T02:37:47.315Z,43.35
2022-10-31T02:42:49.181Z,39.28
2022-10-31T02:47:59.962Z,34.20
2022-10-31T02:53:03.685Z,33.92
2022-10-31T03:03:26.303Z,40.63
2022-10-31T03:08:42.931Z,33.35
2022-10-31T03:13:50.450Z,32.88
2022-10-31T03:19:06.624Z,37.72
2022-10-31T03:24:10.478Z,33.35
2022-10-31T03:29:16.362Z,34.28
2022-10-31T03:34:20.719Z,31.63
2022-10-31T03:39:24.548Z,36.67
2022-10-31T03:49:35.799Z,33.72
2022-10-31T03:54:41.456Z,31.97
2022-10-31T03:59:48.119Z,34.20
2022-10-31T04:04:51.065Z,31.42
2022-10-31T04:09:54.215Z,42.78
2022-10-31T04:14:58.330Z,35.35
2022-10-31T04:20:01.857Z,31.27
2022-10-31T04:25:04.865Z,30.45
2022-10-31T04:30:07.518Z,31.65
2022-10-31T04:35:12.105Z,35.65
2022-10-31T04:40:14.199Z,32.53
2022-10-31T04:45:34.458Z,39.05
2022-10-31T04:50:36.681Z,35.63
2022-10-31T04:55:38.711Z,36.28
2022-10-31T05:00:56.899Z,34.55
2022-10-31T05:05:59.084Z,31.80
2022-10-31T05:11:04.452Z,29.15
2022-10-31T05:16:07.571Z,33.80
2022-10-31T05:21:28.075Z,30.13
2022-10-31T05:26:34.623Z,30.65
2022-10-31T05:31:36.531Z,35.58
2022-10-31T05:36:40.708Z,35.75
2022-10-31T05:41:48.450Z,33.50
2022-10-31T05:47:01.985Z,28.73
2022-10-31T05:52:22.540Z,26.45
2022-10-31T05:57:33.363Z,23.00
2022-10-31T06:02:35.526Z,26.58
2022-10-31T06:07:57.468Z,30.58
2022-10-31T06:18:11.251Z,28.52
2022-10-31T06:28:33.527Z,21.58
2022-10-31T06:33:47.334Z,19.07
2022-10-31T06:38:49.315Z,17.38
2022-10-31T06:43:53.785Z,25.38
2022-10-31T06:49:14.294Z,23.15
2022-10-31T06:54:26.600Z,20.17
2022-10-31T06:59:29.835Z,22.63
2022-10-31T07:04:46.711Z,19.48
2022-10-31T07:14:56.337Z,20.13
2022-10-31T07:19:58.315Z,25.00
2022-10-31T07:25:00.684Z,20.85
2022-10-31T07:30:40.463Z,20.42
2022-10-31T07:40:52.887Z,15.57
2022-10-31T07:45:55.662Z,15.57
2022-10-31T07:51:16.143Z,19.58
2022-10-31T07:56:36.255Z,14.88
2022-10-31T08:01:38.348Z,16.10
2022-10-31T08:07:06.432Z,12.60
2022-10-31T08:12:11.300Z,14.45
2022-10-31T08:17:13.539Z,15.02
2022-10-31T08:22:22.664Z,16.30
2022-10-31T08:27:25.234Z,17.90
2022-10-31T08:32:29.051Z,21.08
2022-10-31T08:37:58.134Z,21.45
2022-10-31T08:43:15.921Z,23.60
2022-10-31T08:48:18.382Z,26.55
2022-10-31T08:53:20.408Z,24.35
2022-10-31T08:58:35.135Z,23.58
2022-10-31T09:03:39.802Z,24.05
2022-10-31T09:08:42.770Z,23.63
2022-10-31T09:13:44.707Z,24.83
2022-10-31T09:18:52.431Z,25.98
2022-10-31T09:23:54.867Z,28.10
2022-10-31T09:28:58.647Z,29.65
2022-10-31T09:34:00.917Z,29.10
2022-10-31T09:39:11.693Z,29.70
2022-10-31T09:44:46.580Z,34.47
2022-10-31T09:50:15.511Z,35.38
2022-10-31T09:55:21.876Z,40.75
2022-10-31T10:00:30.408Z,45.33
2022-10-31T10:06:06.907Z,37.97
2022-10-31T10:11:44.013Z,31.17
2022-10-31T10:17:19.357Z,29.75
2022-10-31T10:22:33.579Z,30.48
2022-10-31T10:28:07.827Z,31.70
2022-10-31T10:33:21.848Z,31.08
2022-10-31T10:43:36.645Z,32.78
2022-10-31T10:48:50.225Z,32.38
2022-10-31T10:54:14.736Z,31.42
2022-10-31T10:59:20.517Z,31.65
2022-10-31T11:04:34.535Z,27.42
2022-10-31T11:09:37.712Z,28.42
2022-10-31T11:14:53.504Z,26.70
2022-10-31T11:20:27.051Z,27.27
2022-10-31T11:25:28.907Z,23.23
2022-10-31T11:30:36.331Z,24.60
2022-10-31T11:35:40.857Z,23.35
2022-10-31T11:40:53.316Z,22.48
2022-10-31T11:45:55.964Z,21.77
2022-10-31T11:50:59.252Z,20.83
2022-10-31T11:56:13.290Z,21.33
2022-10-31T12:01:26.868Z,20.77
2022-10-31T12:06:34.646Z,20.25
2022-10-31T12:11:52.559Z,20.27
2022-10-31T12:17:13.790Z,19.38
2022-10-31T12:22:35.954Z,16.80
2022-10-31T12:28:03.061Z,18.42
2022-10-31T12:33:26.495Z,17.02
2022-10-31T12:38:44.818Z,16.52
2022-10-31T12:44:07.760Z,15.13
2022-10-31T12:49:20.915Z,16.47
2022-10-31T12:54:29.278Z,16.67
2022-10-31T12:59:43.752Z,21.83
2022-10-31T13:04:59.503Z,20.55
2022-10-31T13:10:13.677Z,21.88
2022-10-31T13:15:27.395Z,21.45
2022-10-31T13:25:56.574Z,23.15
2022-10-31T13:30:58.901Z,25.15
2022-10-31T13:36:12.878Z,23.88
2022-10-31T13:41:32.079Z,24.98
2022-10-31T13:46:34.044Z,24.20
2022-10-31T13:51:36.264Z,27.42
2022-10-31T13:56:38.552Z,29.45
2022-10-31T14:01:57.588Z,29.52
2022-10-31T14:07:08.632Z,30.92
2022-10-31T14:12:35.665Z,32.92
2022-10-31T14:18:02.783Z,33.28
2022-10-31T14:23:33.854Z,36.65
2022-10-31T14:28:36.827Z,33.92
2022-10-31T14:33:43.398Z,34.90
2022-10-31T14:39:12.119Z,36.40
2022-10-31T14:44:26.435Z,42.92
2022-10-31T14:50:05.341Z,40.78
2022-10-31T14:55:13.908Z,47.08
2022-10-31T15:00:21.554Z,43.00
2022-10-31T15:05:24.560Z,50.05
2022-10-31T15:10:33.205Z,63.65
2022-10-31T15:15:36.071Z,61.30
2022-10-31T15:20:44.687Z,56.97
2022-10-31T15:25:47.175Z,67.60
2022-10-31T15:30:54.787Z,56.97
2022-10-31T15:36:02.094Z,52.08
2022-10-31T15:41:19.664Z,64.30
2022-10-31T15:46:22.536Z,59.42
2022-10-31T15:51:35.097Z,62.92
2022-10-31T15:56:37.216Z,60.92
2022-10-31T16:01:39.169Z,75.63
2022-10-31T16:06:41.084Z,69.20
2022-10-31T16:11:44.254Z,84.15
2022-10-31T16:16:56.408Z,88.50
2022-10-31T16:22:13.118Z,75.78
2022-10-31T16:27:29.461Z,86.50
2022-10-31T16:32:36.282Z,89.10
2022-10-31T16:37:40.945Z,94.95
2022-10-31T16:42:44.179Z,74.70
2022-10-31T16:47:46.943Z,70.07
2022-10-31T16:58:19.971Z,68.97
2022-10-31T17:03:22.054Z,78.50
2022-10-31T17:08:24.908Z,95.07
2022-10-31T17:13:30.159Z,82.03
2022-10-31T17:18:32.514Z,84.60
2022-10-31T17:23:34.631Z,100.63
2022-10-31T17:28:36.990Z,90.95
2022-10-31T17:33:38.966Z,89.85
2022-10-31T17:38:47.247Z,91.40
2022-10-31T17:43:49.138Z,81.22
2022-10-31T17:48:51.244Z,87.90
2022-10-31T17:53:54.114Z,89.35
2022-10-31T17:58:58.104Z,77.10
2022-10-31T18:04:00.059Z,72.43
2022-10-31T18:09:05.951Z,80.10
2022-10-31T18:14:09.597Z,74.05
2022-10-31T18:24:14.554Z,54.10
2022-10-31T18:29:16.633Z,57.80
2022-10-31T18:34:18.655Z,54.88
2022-10-31T18:39:20.574Z,49.38
2022-10-31T18:44:22.495Z,58.83
2022-10-31T18:49:25.632Z,60.30
2022-10-31T18:54:27.836Z,69.32
2022-10-31T18:59:29.718Z,80.78
2022-10-31T19:04:31.612Z,66.90
2022-10-31T19:09:34.332Z,67.45
2022-10-31T19:14:36.201Z,72.13
2022-10-31T19:19:39.348Z,71.35
2022-10-31T19:24:41.298Z,68.15
2022-10-31T19:29:43.249Z,58.83
2022-10-31T19:34:45.226Z,54.28
2022-10-31T19:39:47.233Z,48.03
2022-10-31T19:44:49.190Z,41.47
2022-10-31T19:49:51.322Z,42.33
2022-10-31T19:54:53.187Z,40.30
2022-10-31T19:59:55.031Z,46.05
2022-10-31T20:04:59.242Z,45.08
2022-10-31T20:10:01.283Z,44.67
2022-10-31T20:15:03.636Z,51.40
2022-10-31T20:20:08.897Z,39.10
2022-10-31T20:25:10.941Z,38.58
2022-10-31T20:30:13.473Z,36.78
2022-10-31T20:35:15.579Z,36.28
2022-10-31T20:40:17.526Z,50.65
2022-10-31T20:45:19.334Z,34.13
2022-10-31T20:50:21.850Z,32.42
2022-10-31T20:55:29.943Z,29.58
2022-10-31T21:00:31.822Z,41.58
2022-10-31T21:05:33.674Z,35.47
2022-10-31T21:10:35.531Z,34.40
2022-10-31T21:15:37.377Z,35.03
2022-10-31T21:20:41.242Z,34.70
2022-10-31T21:25:43.624Z,32.17
2022-10-31T21:30:48.034Z,32.63
2022-10-31T21:35:51.592Z,38.88
2022-10-31T21:46:12.224Z,33.90
2022-10-31T21:51:22.740Z,32.00
2022-10-31T21:56:25.745Z,31.65
2022-10-31T22:01:29.425Z,32.22
2022-10-31T22:06:32.114Z,39.28
2022-10-31T22:11:34.485Z,26.88
2022-10-31T22:16:36.649Z,29.52
2022-10-31T22:21:44.384Z,30.85
2022-10-31T22:26:46.888Z,28.90
2022-10-31T22:31:53.544Z,29.27
2022-10-31T22:36:59.253Z,26.95
2022-10-31T22:42:01.083Z,32.45
2022-10-31T22:47:02.940Z,28.75
2022-10-31T22:52:05.487Z,26.00
2022-10-31T22:57:07.374Z,26.52
2022-10-31T23:02:12.526Z,28.33
2022-10-31T23:07:15.274Z,25.65
2022-10-31T23:12:36.748Z,25.42
2022-10-31T23:17:39.189Z,30.35
2022-10-31T23:22:41.327Z,29.67
2022-10-31T23:27:43.235Z,30.73
2022-10-31T23:32:45.051Z,31.88
2022-10-31T23:37:46.935Z,33.92
2022-10-31T23:42:48.726Z,31.35
2022-10-31T23:47:50.538Z,33.38
2022-10-31T23:52:52.700Z,49.70
2022-10-31T23:57:54.723Z,31.70
